ESNU/UME METAR and TAF weather

Enter ICAO airport designator
Station Type Date Time Source
ESNU METAR 2019/02/20 06:50 UTC NOAA

ESNU 200650Z 32019KT CAVOK M07/M14 Q1000 R14/71//60


Station Type Date Time Source
ESNU Decoded METAR 2019/02/20 06:50 UTC NOAA

Umea Flygplats, Sweden (ESNU) 63-48N 020-17E 14M
Feb 20, 2019 - 01:50 AM EST / 2019.02.20 0650 UTC
Wind: from the NW (320 degrees) at 22 MPH (19 KT):0
Visibility: greater than 7 mile(s):0
Temperature: 19 F (-7 C)
Windchill: 1 F (-17 C):1
Dew Point: 6 F (-14 C)
Relative Humidity: 57%
Pressure (altimeter): 29.53 in. Hg (1000 hPa)
ob: ESNU 200650Z 32019KT CAVOK M07/M14 Q1000 R14/71//60
cycle: 7

Station Type Date Time Source
ESNU TAF 2019/01/04 00:39 UTC NOAA

TAF TAF ESNU 042330Z 0500/0524 34002KT CAVOK PROB40 0500/0503 BKN008


Example: see airport list